Time;durP1;ratioP1;P1;durP2;ratioP2;P2;SDS_P1;SDS_P2;PMS_P1;PMS_P2;Temp;Humidity;BMP_temperature;BMP_pressure;BME280_temperature;BME280_humidity;BME280_pressure;Samples;Min_cycle;Max_cycle;Signal;HPM_P1;HPM_P2
2022/02/21 00:01:45;;;;;;;9.52;2.22;;;;;;;;;;4989176;28;20054;-82
2022/02/21 00:04:10;;;;;;;7.35;1.48;;;;;;;;;;4989685;28;20111;-86
2022/02/21 00:06:35;;;;;;;11.35;1.58;;;;;;;;;;4994225;28;20025;-87
2022/02/21 00:09:01;;;;;;;10.07;1.35;;;;;;;;;;4992172;28;20475;-83
2022/02/21 00:11:27;;;;;;;12.90;1.42;;;;;;;;;;4989004;28;20799;-86
2022/02/21 00:13:53;;;;;;;14.55;1.52;;;;;;;;;;4991086;28;20030;-86
2022/02/21 00:16:18;;;;;;;12.07;2.03;;;;;;;;;;5004858;28;20029;-87
2022/02/21 00:18:44;;;;;;;9.85;1.52;;;;;;;;;;4986042;28;20058;-85
2022/02/21 00:21:09;;;;;;;13.63;1.80;;;;;;;;;;4989266;28;20423;-82
2022/02/21 00:23:34;;;;;;;13.07;1.70;;;;;;;;;;4985995;28;20033;-86
2022/02/21 00:26:00;;;;;;;13.43;1.63;;;;;;;;;;4983537;28;20049;-83
2022/02/21 00:28:25;;;;;;;11.30;1.50;;;;;;;;;;4985865;28;20053;-86
2022/02/21 00:30:50;;;;;;;9.35;1.48;;;;;;;;;;4981820;28;20031;-83
2022/02/21 00:33:16;;;;;;;11.85;1.67;;;;;;;;;;4987510;28;20479;-86
2022/02/21 00:35:41;;;;;;;8.07;1.17;;;;;;;;;;4985168;28;20494;-86
2022/02/21 00:38:07;;;;;;;11.52;1.50;;;;;;;;;;4998831;28;20038;-87
2022/02/21 00:40:32;;;;;;;11.93;1.55;;;;;;;;;;4987304;28;20018;-82
2022/02/21 00:42:57;;;;;;;14.38;1.88;;;;;;;;;;4979909;28;20027;-86
2022/02/21 00:45:23;;;;;;;12.15;1.45;;;;;;;;;;4988697;28;20514;-87
2022/02/21 00:47:48;;;;;;;7.18;1.02;;;;;;;;;;4986347;28;20077;-83
2022/02/21 00:50:14;;;;;;;9.13;1.67;;;;;;;;;;4986906;28;20042;-83
2022/02/21 00:52:39;;;;;;;19.40;1.80;;;;;;;;;;4988922;28;20073;-83
2022/02/21 00:55:05;;;;;;;8.23;1.35;;;;;;;;;;4986305;28;20409;-86
2022/02/21 00:57:31;;;;;;;10.02;1.45;;;;;;;;;;4991558;28;20027;-86
2022/02/21 00:59:56;;;;;;;11.93;1.48;;;;;;;;;;4986711;28;20612;-86
2022/02/21 01:02:21;;;;;;;8.18;1.30;;;;;;;;;;4983820;28;20030;-86
2022/02/21 01:04:47;;;;;;;7.80;1.70;;;;;;;;;;4989717;28;20018;-83
2022/02/21 01:07:12;;;;;;;10.90;1.58;;;;;;;;;;4993487;28;20105;-86
2022/02/21 01:09:37;;;;;;;12.73;1.90;;;;;;;;;;4989718;28;20432;-86
2022/02/21 01:12:03;;;;;;;11.70;1.48;;;;;;;;;;4989574;28;20023;-87
2022/02/21 01:14:29;;;;;;;12.32;1.70;;;;;;;;;;4995046;28;20033;-84
2022/02/21 01:16:54;;;;;;;12.02;2.10;;;;;;;;;;4979841;28;20817;-82
2022/02/21 01:19:19;;;;;;;5.07;1.20;;;;;;;;;;4992314;28;20041;-86
2022/02/21 01:21:45;;;;;;;11.25;1.90;;;;;;;;;;4983746;28;20063;-84
2022/02/21 01:24:10;;;;;;;12.57;1.60;;;;;;;;;;4983274;28;20499;-86
2022/02/21 01:26:35;;;;;;;9.25;1.38;;;;;;;;;;4983207;28;20045;-87
2022/02/21 01:29:01;;;;;;;14.13;2.20;;;;;;;;;;4984881;28;20061;-84
2022/02/21 01:31:26;;;;;;;9.70;1.50;;;;;;;;;;4980847;28;20026;-87
2022/02/21 01:33:52;;;;;;;15.35;2.45;;;;;;;;;;4988197;28;20030;-87
2022/02/21 01:36:17;;;;;;;10.82;1.80;;;;;;;;;;4989440;28;20028;-83
2022/02/21 01:38:42;;;;;;;10.85;1.45;;;;;;;;;;4988991;28;20480;-84
2022/02/21 01:41:08;;;;;;;13.15;1.40;;;;;;;;;;4984794;28;20513;-84
2022/02/21 01:43:34;;;;;;;9.85;1.70;;;;;;;;;;4992307;28;20042;-87
2022/02/21 01:45:59;;;;;;;12.13;1.50;;;;;;;;;;4989183;28;20093;-84
2022/02/21 01:48:25;;;;;;;10.90;1.70;;;;;;;;;;4983926;28;20030;-84
2022/02/21 01:50:50;;;;;;;10.98;1.67;;;;;;;;;;4991309;28;20033;-88
2022/02/21 01:53:18;;;;;;;12.63;1.90;;;;;;;;;;4988156;28;20037;-87
2022/02/21 01:55:44;;;;;;;7.15;1.40;;;;;;;;;;4988608;28;20476;-84
2022/02/21 01:58:10;;;;;;;9.65;1.65;;;;;;;;;;4986202;28;20456;-84
2022/02/21 02:00:35;;;;;;;16.10;2.28;;;;;;;;;;4989658;28;20026;-87
2022/02/21 02:03:00;;;;;;;9.63;1.30;;;;;;;;;;4991129;28;20121;-87
2022/02/21 02:05:26;;;;;;;8.23;1.40;;;;;;;;;;4991955;28;20022;-82
2022/02/21 02:07:53;;;;;;;11.52;2.17;;;;;;;;;;4990516;28;20025;-87
2022/02/21 02:10:19;;;;;;;11.07;2.22;;;;;;;;;;4990033;28;20054;-87
2022/02/21 02:12:44;;;;;;;12.63;1.67;;;;;;;;;;4986055;28;20070;-87
2022/02/21 02:15:12;;;;;;;13.18;1.80;;;;;;;;;;4991656;28;20528;-86
2022/02/21 02:17:38;;;;;;;11.48;2.00;;;;;;;;;;4989433;28;20479;-82
2022/02/21 02:20:03;;;;;;;10.43;1.70;;;;;;;;;;4992164;28;20098;-83
2022/02/21 02:22:29;;;;;;;8.45;1.10;;;;;;;;;;4989611;28;20494;-84
2022/02/21 02:24:54;;;;;;;11.27;1.80;;;;;;;;;;4990961;28;20069;-86
2022/02/21 02:27:21;;;;;;;9.43;1.65;;;;;;;;;;4991796;28;20038;-83
2022/02/21 02:29:50;;;;;;;11.18;2.00;;;;;;;;;;4989716;28;20034;-88
2022/02/21 02:32:15;;;;;;;10.93;1.75;;;;;;;;;;4994559;28;20030;-85
2022/02/21 02:34:43;;;;;;;9.35;1.42;;;;;;;;;;4992014;28;20184;-87
2022/02/21 02:37:09;;;;;;;8.23;1.50;;;;;;;;;;4993462;28;20034;-87
2022/02/21 02:39:35;;;;;;;6.93;1.33;;;;;;;;;;4996193;28;20137;-85
2022/02/21 02:42:00;;;;;;;11.55;1.60;;;;;;;;;;4991625;28;20048;-87
2022/02/21 02:44:26;;;;;;;7.82;1.30;;;;;;;;;;4990410;28;20046;-87
2022/02/21 02:46:51;;;;;;;9.57;1.23;;;;;;;;;;4991129;28;20089;-87
2022/02/21 02:49:17;;;;;;;9.32;1.23;;;;;;;;;;4994116;28;20036;-87
2022/02/21 02:51:42;;;;;;;4.38;1.10;;;;;;;;;;4989356;28;20502;-84
2022/02/21 02:54:10;;;;;;;9.50;1.35;;;;;;;;;;4992247;28;20030;-84
2022/02/21 02:56:36;;;;;;;11.13;1.80;;;;;;;;;;4985280;28;20036;-87
2022/02/21 02:59:03;;;;;;;9.60;1.70;;;;;;;;;;4988428;28;20050;-87
2022/02/21 03:01:28;;;;;;;10.15;1.70;;;;;;;;;;4987971;28;20018;-87
2022/02/21 03:03:54;;;;;;;8.57;1.45;;;;;;;;;;4992223;28;20018;-88
2022/02/21 03:06:19;;;;;;;9.32;1.38;;;;;;;;;;4984682;28;20026;-83
2022/02/21 03:08:44;;;;;;;8.93;1.42;;;;;;;;;;4986693;28;20438;-83
2022/02/21 03:11:10;;;;;;;11.40;1.75;;;;;;;;;;4989307;28;20029;-83
2022/02/21 03:13:35;;;;;;;9.43;1.77;;;;;;;;;;4986095;28;20117;-84
2022/02/21 03:16:01;;;;;;;14.52;1.45;;;;;;;;;;4990659;28;20034;-87
2022/02/21 03:18:26;;;;;;;10.30;1.60;;;;;;;;;;4989144;28;20495;-83
2022/02/21 03:20:51;;;;;;;9.30;1.88;;;;;;;;;;4991546;28;20110;-88
2022/02/21 03:23:17;;;;;;;9.63;1.50;;;;;;;;;;4992377;28;20023;-83
2022/02/21 03:25:43;;;;;;;12.10;2.40;;;;;;;;;;4994786;28;20037;-86
2022/02/21 03:28:09;;;;;;;10.13;1.73;;;;;;;;;;4989465;28;20027;-87
2022/02/21 03:30:34;;;;;;;13.73;1.67;;;;;;;;;;4993525;28;20356;-86
2022/02/21 03:33:01;;;;;;;7.93;1.52;;;;;;;;;;4991403;28;20029;-85
2022/02/21 03:35:27;;;;;;;8.68;1.55;;;;;;;;;;4988281;28;20113;-82
2022/02/21 03:37:52;;;;;;;10.95;2.38;;;;;;;;;;4992038;28;20133;-85
2022/02/21 03:40:18;;;;;;;12.20;2.05;;;;;;;;;;4988072;28;20023;-84
2022/02/21 03:42:43;;;;;;;10.45;1.67;;;;;;;;;;4994355;28;20403;-83
2022/02/21 03:45:09;;;;;;;6.72;1.23;;;;;;;;;;4987542;28;20479;-87
2022/02/21 03:47:34;;;;;;;7.70;1.70;;;;;;;;;;4995177;28;20030;-87
2022/02/21 03:50:00;;;;;;;10.55;1.67;;;;;;;;;;4992538;28;20626;-88
2022/02/21 03:52:26;;;;;;;10.98;2.20;;;;;;;;;;4993200;28;20025;-89
2022/02/21 03:54:51;;;;;;;8.00;1.90;;;;;;;;;;4989069;28;20123;-87
2022/02/21 03:57:17;;;;;;;13.50;1.85;;;;;;;;;;4990785;28;20084;-85
2022/02/21 03:59:43;;;;;;;10.35;2.03;;;;;;;;;;4985767;28;20034;-83
2022/02/21 04:02:08;;;;;;;10.50;1.92;;;;;;;;;;4995360;28;20018;-87
2022/02/21 04:04:33;;;;;;;11.73;2.00;;;;;;;;;;4990202;28;20521;-87
2022/02/21 04:06:59;;;;;;;11.50;1.50;;;;;;;;;;4988177;28;20105;-84
2022/02/21 04:09:24;;;;;;;7.38;1.65;;;;;;;;;;4996872;28;20467;-85
2022/02/21 04:11:49;;;;;;;18.27;2.97;;;;;;;;;;4986607;28;20026;-88
2022/02/21 04:14:15;;;;;;;12.27;1.95;;;;;;;;;;4988895;28;20037;-83
2022/02/21 04:16:41;;;;;;;11.13;1.50;;;;;;;;;;4988561;28;20553;-89
2022/02/21 04:19:06;;;;;;;9.48;1.95;;;;;;;;;;4979047;28;20404;-83
2022/02/21 04:21:32;;;;;;;9.70;1.45;;;;;;;;;;4973763;28;20387;-87
2022/02/21 04:23:58;;;;;;;10.05;1.70;;;;;;;;;;4970781;28;20491;-84
2022/02/21 04:26:23;;;;;;;11.60;1.83;;;;;;;;;;4989270;28;20030;-87
2022/02/21 04:28:49;;;;;;;9.98;1.30;;;;;;;;;;4972877;28;20494;-84
2022/02/21 04:31:17;;;;;;;11.55;1.80;;;;;;;;;;4970749;28;20034;-85
2022/02/21 04:33:46;;;;;;;9.75;1.83;;;;;;;;;;4964102;28;20038;-87
2022/02/21 04:36:12;;;;;;;11.20;1.55;;;;;;;;;;4962939;28;20042;-83
2022/02/21 04:38:38;;;;;;;9.85;1.58;;;;;;;;;;4967083;28;20030;-89
2022/02/21 04:41:03;;;;;;;8.68;1.55;;;;;;;;;;4971062;28;20031;-86
2022/02/21 04:43:28;;;;;;;10.88;1.63;;;;;;;;;;4973030;28;20034;-84
2022/02/21 04:45:55;;;;;;;10.07;1.90;;;;;;;;;;4989466;28;20549;-87
2022/02/21 04:48:24;;;;;;;10.00;1.55;;;;;;;;;;4970190;28;20034;-89
2022/02/21 04:50:50;;;;;;;14.82;2.60;;;;;;;;;;4972726;28;20030;-85
2022/02/21 04:53:16;;;;;;;9.45;1.63;;;;;;;;;;4984675;28;20039;-89
2022/02/21 04:55:41;;;;;;;7.30;1.63;;;;;;;;;;4974898;28;20395;-85
2022/02/21 04:58:07;;;;;;;10.90;1.52;;;;;;;;;;4981252;28;20030;-85
2022/02/21 05:00:33;;;;;;;11.00;1.55;;;;;;;;;;4968126;28;20034;-88
2022/02/21 05:02:58;;;;;;;5.60;1.20;;;;;;;;;;4969423;28;20125;-85
2022/02/21 05:05:23;;;;;;;10.35;1.58;;;;;;;;;;4969366;28;20164;-87
2022/02/21 05:07:49;;;;;;;10.45;1.95;;;;;;;;;;4976963;28;20360;-89
2022/02/21 05:10:14;;;;;;;7.03;1.20;;;;;;;;;;4983325;28;20037;-90
2022/02/21 05:12:40;;;;;;;12.25;1.80;;;;;;;;;;4971243;28;20031;-83
2022/02/21 05:15:07;;;;;;;11.18;1.63;;;;;;;;;;4971803;28;20034;-82
2022/02/21 05:17:33;;;;;;;10.40;1.17;;;;;;;;;;4981348;28;20395;-85
2022/02/21 05:19:59;;;;;;;13.32;1.83;;;;;;;;;;4996526;28;20355;-89
2022/02/21 05:22:24;;;;;;;10.90;1.40;;;;;;;;;;4994350;28;20049;-87
2022/02/21 05:24:50;;;;;;;11.38;1.77;;;;;;;;;;4993034;28;20022;-85
2022/02/21 05:27:16;;;;;;;7.90;2.15;;;;;;;;;;4994757;28;20029;-85
2022/02/21 05:29:41;;;;;;;11.13;1.50;;;;;;;;;;4993347;28;20056;-86
2022/02/21 05:32:10;;;;;;;10.90;1.60;;;;;;;;;;5010187;28;20032;-84
2022/02/21 05:34:35;;;;;;;8.82;1.83;;;;;;;;;;4993183;28;20026;-87
2022/02/21 05:37:01;;;;;;;9.40;1.42;;;;;;;;;;4991722;28;20037;-89
2022/02/21 05:39:26;;;;;;;10.60;1.60;;;;;;;;;;4992741;28;20132;-85
2022/02/21 05:41:51;;;;;;;12.38;2.13;;;;;;;;;;5005959;28;20478;-85
2022/02/21 05:44:17;;;;;;;9.43;1.90;;;;;;;;;;5008345;28;20112;-88
2022/02/21 05:46:42;;;;;;;9.55;1.75;;;;;;;;;;4993542;28;20061;-87
2022/02/21 05:49:09;;;;;;;10.82;1.58;;;;;;;;;;5000355;28;20026;-90
2022/02/21 05:51:34;;;;;;;12.75;1.48;;;;;;;;;;4992979;28;20026;-87
2022/02/21 05:53:59;;;;;;;14.23;2.42;;;;;;;;;;4993438;28;20390;-87
2022/02/21 05:56:25;;;;;;;13.10;1.90;;;;;;;;;;4991237;28;20033;-89
2022/02/21 05:58:50;;;;;;;12.40;1.55;;;;;;;;;;4996608;28;20129;-88
2022/02/21 06:01:16;;;;;;;10.93;1.92;;;;;;;;;;4991698;28;20021;-87
2022/02/21 06:03:42;;;;;;;8.82;1.38;;;;;;;;;;4989008;28;20034;-88
2022/02/21 06:06:07;;;;;;;8.98;1.60;;;;;;;;;;5001056;28;20037;-87
2022/02/21 06:08:32;;;;;;;12.00;1.67;;;;;;;;;;4996331;28;20022;-90
2022/02/21 06:10:58;;;;;;;13.68;1.85;;;;;;;;;;4996416;28;20034;-88
2022/02/21 06:13:24;;;;;;;12.00;1.58;;;;;;;;;;4991641;28;20044;-85
2022/02/21 06:15:49;;;;;;;8.88;1.35;;;;;;;;;;5000800;28;20040;-87
2022/02/21 06:18:15;;;;;;;14.32;1.85;;;;;;;;;;4998145;28;20065;-83
2022/02/21 06:20:43;;;;;;;12.48;1.42;;;;;;;;;;4994123;28;20588;-90
2022/02/21 06:23:08;;;;;;;8.82;1.50;;;;;;;;;;4994795;28;20029;-83
2022/02/21 06:25:35;;;;;;;15.40;1.63;;;;;;;;;;4995918;28;20482;-89
2022/02/21 06:28:01;;;;;;;9.70;1.60;;;;;;;;;;4992918;28;20022;-88
2022/02/21 06:30:26;;;;;;;6.93;1.25;;;;;;;;;;5007032;28;20044;-84
2022/02/21 06:32:51;;;;;;;12.30;1.90;;;;;;;;;;4989543;28;20034;-87
2022/02/21 06:35:17;;;;;;;9.18;1.38;;;;;;;;;;4993083;28;20030;-89
2022/02/21 06:37:55;;;;;;;10.38;1.65;;;;;;;;;;4993612;28;20036;-86
2022/02/21 06:40:22;;;;;;;13.48;2.10;;;;;;;;;;5009383;28;20025;-82
2022/02/21 06:42:50;;;;;;;15.15;2.28;;;;;;;;;;4991454;28;20386;-87
2022/02/21 06:45:16;;;;;;;9.27;1.40;;;;;;;;;;4989808;28;20645;-84
2022/02/21 06:47:42;;;;;;;7.22;1.58;;;;;;;;;;4991465;28;20040;-88
2022/02/21 06:50:09;;;;;;;9.77;1.48;;;;;;;;;;4988439;28;20033;-85
2022/02/21 06:52:35;;;;;;;11.88;2.10;;;;;;;;;;4993581;28;20034;-87
2022/02/21 06:55:01;;;;;;;13.32;1.48;;;;;;;;;;4993595;28;20032;-89
2022/02/21 06:57:27;;;;;;;10.90;2.03;;;;;;;;;;4987620;28;20038;-90
2022/02/21 06:59:53;;;;;;;13.80;2.00;;;;;;;;;;4993952;28;20037;-82
2022/02/21 07:02:19;;;;;;;11.55;1.67;;;;;;;;;;4993517;28;20025;-87
2022/02/21 07:04:44;;;;;;;11.93;1.98;;;;;;;;;;4992558;28;20382;-83
2022/02/21 07:07:10;;;;;;;6.75;1.58;;;;;;;;;;4993639;28;20049;-86
2022/02/21 07:09:37;;;;;;;10.25;1.80;;;;;;;;;;4995616;28;20096;-85
2022/02/21 07:12:03;;;;;;;10.98;1.77;;;;;;;;;;4995564;28;20096;-92
2022/02/21 07:14:34;;;;;;;10.27;2.00;;;;;;;;;;4992955;28;20478;-85
2022/02/21 07:17:11;;;;;;;8.30;1.33;;;;;;;;;;4996935;28;20471;-90
2022/02/21 07:19:37;;;;;;;10.80;2.03;;;;;;;;;;5007667;28;20132;-84
2022/02/21 07:22:02;;;;;;;10.52;1.63;;;;;;;;;;4995611;28;20108;-89
2022/02/21 07:24:28;;;;;;;13.30;1.88;;;;;;;;;;4998622;28;20048;-83
2022/02/21 07:26:53;;;;;;;5.32;1.25;;;;;;;;;;4995053;28;20371;-86
2022/02/21 07:29:19;;;;;;;11.85;1.35;;;;;;;;;;4994735;28;20415;-86
2022/02/21 07:31:44;;;;;;;9.57;2.00;;;;;;;;;;4988122;28;20031;-83
2022/02/21 07:34:09;;;;;;;9.18;1.50;;;;;;;;;;4985914;28;20033;-89
2022/02/21 07:36:35;;;;;;;8.32;1.30;;;;;;;;;;4986220;28;20022;-89
2022/02/21 07:39:01;;;;;;;11.82;1.88;;;;;;;;;;4989823;28;20041;-85
2022/02/21 07:41:28;;;;;;;10.13;1.58;;;;;;;;;;4988165;28;20044;-85
2022/02/21 07:43:53;;;;;;;9.00;1.52;;;;;;;;;;5009261;28;20409;-88
2022/02/21 07:46:18;;;;;;;13.23;1.80;;;;;;;;;;4985859;28;20033;-85
2022/02/21 07:48:44;;;;;;;11.00;1.65;;;;;;;;;;4988305;28;20057;-89
2022/02/21 07:51:09;;;;;;;11.55;1.70;;;;;;;;;;4991260;28;20029;-87
2022/02/21 07:53:35;;;;;;;9.68;1.80;;;;;;;;;;4974844;28;20029;-83
2022/02/21 07:56:03;;;;;;;9.48;1.40;;;;;;;;;;4987465;28;20582;-88
2022/02/21 07:58:31;;;;;;;9.98;1.70;;;;;;;;;;4990668;28;20047;-83
2022/02/21 08:00:57;;;;;;;9.40;2.22;;;;;;;;;;5003453;28;20522;-85
2022/02/21 08:03:25;;;;;;;9.48;1.80;;;;;;;;;;4989995;28;20029;-89
2022/02/21 08:05:57;;;;;;;12.30;1.70;;;;;;;;;;4989450;28;20041;-83
2022/02/21 08:08:22;;;;;;;12.68;1.30;;;;;;;;;;4992297;28;20033;-88
2022/02/21 08:10:51;;;;;;;9.18;1.90;;;;;;;;;;4990777;28;20529;-88
2022/02/21 08:13:16;;;;;;;7.07;1.30;;;;;;;;;;5007795;28;20096;-84
2022/02/21 08:15:48;;;;;;;12.82;1.50;;;;;;;;;;4989570;28;20484;-82
2022/02/21 08:18:13;;;;;;;7.28;1.15;;;;;;;;;;4991475;28;20530;-85
2022/02/21 08:20:39;;;;;;;7.50;1.48;;;;;;;;;;5003453;28;20081;-89
2022/02/21 08:23:04;;;;;;;7.40;1.40;;;;;;;;;;4989228;28;20026;-85
2022/02/21 08:25:30;;;;;;;10.02;1.55;;;;;;;;;;5005829;28;20033;-84
2022/02/21 08:28:00;;;;;;;8.15;1.30;;;;;;;;;;4992283;28;20032;-85
2022/02/21 08:30:30;;;;;;;9.20;1.58;;;;;;;;;;4990594;28;20383;-87
2022/02/21 08:33:01;;;;;;;8.77;1.20;;;;;;;;;;4994624;28;20026;-89
2022/02/21 08:35:29;;;;;;;5.47;1.02;;;;;;;;;;4998413;28;20030;-83
2022/02/21 08:38:04;;;;;;;5.60;1.35;;;;;;;;;;4996483;28;20030;-87
2022/02/21 08:40:35;;;;;;;10.13;1.17;;;;;;;;;;4992193;28;20066;-84
2022/02/21 08:43:00;;;;;;;10.13;1.23;;;;;;;;;;4992530;28;20521;-87
2022/02/21 08:45:26;;;;;;;8.75;1.75;;;;;;;;;;4991715;28;20120;-90
2022/02/21 08:47:51;;;;;;;10.32;1.65;;;;;;;;;;4994776;28;20033;-84
2022/02/21 08:50:17;;;;;;;8.68;1.48;;;;;;;;;;4992923;28;20172;-85
2022/02/21 08:52:42;;;;;;;11.48;1.83;;;;;;;;;;5000090;28;20550;-90
2022/02/21 08:55:10;;;;;;;8.65;1.55;;;;;;;;;;4994624;28;20042;-83
2022/02/21 08:57:37;;;;;;;7.32;1.90;;;;;;;;;;5006721;28;20034;-83
2022/02/21 09:00:07;;;;;;;12.13;2.13;;;;;;;;;;5010852;28;20105;-89
2022/02/21 09:02:33;;;;;;;9.40;1.38;;;;;;;;;;4989067;28;20022;-88
2022/02/21 09:04:58;;;;;;;10.93;1.75;;;;;;;;;;5000628;28;20034;-84
2022/02/21 09:07:24;;;;;;;10.98;2.20;;;;;;;;;;5011349;28;20056;-87
2022/02/21 09:09:49;;;;;;;9.52;2.15;;;;;;;;;;4994546;28;20033;-82
2022/02/21 09:12:15;;;;;;;9.45;1.95;;;;;;;;;;4996300;28;20033;-84
2022/02/21 09:14:46;;;;;;;12.32;1.83;;;;;;;;;;4989518;28;20057;-84
2022/02/21 09:17:12;;;;;;;7.63;1.65;;;;;;;;;;4989130;28;20033;-83
2022/02/21 09:19:37;;;;;;;11.43;1.80;;;;;;;;;;5006065;28;20052;-85
2022/02/21 09:22:02;;;;;;;6.95;1.58;;;;;;;;;;4993229;28;20058;-87
2022/02/21 09:24:28;;;;;;;7.63;1.50;;;;;;;;;;4987562;28;20036;-83
2022/02/21 09:26:53;;;;;;;10.57;1.98;;;;;;;;;;5008295;28;20034;-88
2022/02/21 09:29:18;;;;;;;8.63;1.88;;;;;;;;;;4993660;28;20112;-87
2022/02/21 09:31:44;;;;;;;7.25;1.85;;;;;;;;;;5012652;28;20033;-84
2022/02/21 09:34:12;;;;;;;8.40;1.60;;;;;;;;;;4992732;28;20025;-87
2022/02/21 09:36:37;;;;;;;8.98;2.00;;;;;;;;;;4998168;28;20036;-86
2022/02/21 09:39:26;;;;;;;11.05;2.10;;;;;;;;;;4994250;28;20538;-83
2022/02/21 09:42:08;;;;;;;8.50;2.00;;;;;;;;;;5008308;28;20061;-88
2022/02/21 09:44:43;;;;;;;7.43;1.92;;;;;;;;;;4994685;28;20029;-85
2022/02/21 09:47:13;;;;;;;11.07;1.95;;;;;;;;;;4991521;28;20486;-87
2022/02/21 09:49:44;;;;;;;7.47;1.73;;;;;;;;;;4991511;28;20466;-83
2022/02/21 09:52:13;;;;;;;10.18;2.03;;;;;;;;;;4994120;28;20561;-84
2022/02/21 09:54:45;;;;;;;5.78;1.75;;;;;;;;;;5004983;28;20491;-83
2022/02/21 09:57:16;;;;;;;10.07;1.90;;;;;;;;;;4993121;28;20021;-84
2022/02/21 09:59:45;;;;;;;8.93;2.22;;;;;;;;;;4992125;28;20033;-90
2022/02/21 10:02:24;;;;;;;5.88;1.98;;;;;;;;;;4994991;28;20022;-87
2022/02/21 10:05:13;;;;;;;10.88;2.22;;;;;;;;;;4992553;28;20033;-87
2022/02/21 10:07:39;;;;;;;12.15;2.33;;;;;;;;;;4992228;28;20113;-83
2022/02/21 10:10:06;;;;;;;12.20;2.05;;;;;;;;;;4988210;28;20487;-86
2022/02/21 10:12:32;;;;;;;11.50;1.80;;;;;;;;;;4992490;28;20387;-84
2022/02/21 10:15:28;;;;;;;10.98;1.95;;;;;;;;;;4994517;28;20034;-87
2022/02/21 10:18:10;;;;;;;14.35;2.90;;;;;;;;;;4985519;28;20105;-88
2022/02/21 10:20:50;;;;;;;11.48;1.90;;;;;;;;;;4991511;28;20037;-85
2022/02/21 10:23:15;;;;;;;11.82;2.25;;;;;;;;;;4991751;28;20058;-88
2022/02/21 10:26:02;;;;;;;10.65;1.85;;;;;;;;;;4994418;28;20573;-87
2022/02/21 10:28:32;;;;;;;12.25;2.00;;;;;;;;;;4993377;28;20080;-87
2022/02/21 10:31:23;;;;;;;13.68;2.00;;;;;;;;;;4990700;28;20026;-85
2022/02/21 10:34:07;;;;;;;11.93;1.83;;;;;;;;;;4996742;28;20025;-87
2022/02/21 10:36:42;;;;;;;7.40;1.73;;;;;;;;;;4989452;28;20399;-88
2022/02/21 10:39:17;;;;;;;9.45;1.73;;;;;;;;;;4992387;28;20037;-85
2022/02/21 10:41:52;;;;;;;10.32;1.77;;;;;;;;;;4994801;28;20045;-84
2022/02/21 10:44:28;;;;;;;11.40;1.92;;;;;;;;;;4995867;28;20156;-85
2022/02/21 10:47:15;;;;;;;12.88;2.10;;;;;;;;;;4991167;28;20521;-87
2022/02/21 10:49:48;;;;;;;7.63;1.70;;;;;;;;;;4992996;28;20052;-88
2022/02/21 10:52:35;;;;;;;;;;;;;;;;;;5000068;28;20398;-85
2022/02/21 10:55:00;;;;;;;9.57;1.70;;;;;;;;;;4996543;28;19962;-89
2022/02/21 10:57:27;;;;;;;8.93;1.70;;;;;;;;;;4994588;28;20061;-85
2022/02/21 10:59:54;;;;;;;9.82;1.92;;;;;;;;;;5012875;28;20025;-84
2022/02/21 11:02:21;;;;;;;8.93;1.80;;;;;;;;;;5010828;28;20029;-87
2022/02/21 11:04:46;;;;;;;10.90;1.70;;;;;;;;;;4991070;28;20033;-85
2022/02/21 11:07:13;;;;;;;9.38;1.60;;;;;;;;;;5000909;28;20111;-87
2022/02/21 11:09:40;;;;;;;9.90;1.85;;;;;;;;;;4995821;28;20036;-85
2022/02/21 11:12:07;;;;;;;13.82;2.13;;;;;;;;;;4995147;28;20031;-87
2022/02/21 11:14:34;;;;;;;15.30;1.90;;;;;;;;;;5000624;28;20025;-85
2022/02/21 11:17:03;;;;;;;10.88;2.10;;;;;;;;;;4998636;28;20029;-85
2022/02/21 11:19:29;;;;;;;12.07;1.77;;;;;;;;;;4978733;28;20045;-85
2022/02/21 11:21:55;;;;;;;11.80;2.55;;;;;;;;;;4976347;28;20026;-84
2022/02/21 11:24:25;;;;;;;17.02;2.30;;;;;;;;;;4977293;28;20041;-84
2022/02/21 11:27:07;;;;;;;14.13;2.20;;;;;;;;;;4974825;28;20513;-88
2022/02/21 11:30:00;;;;;;;14.25;2.35;;;;;;;;;;4975310;28;20030;-85
2022/02/21 11:32:25;;;;;;;12.45;2.40;;;;;;;;;;4972071;28;20483;-86
2022/02/21 11:35:15;;;;;;;10.63;1.92;;;;;;;;;;4974784;28;20023;-85
2022/02/21 11:37:41;;;;;;;21.20;3.03;;;;;;;;;;4971540;28;20487;-89
2022/02/21 11:40:08;;;;;;;20.58;2.72;;;;;;;;;;4973667;28;20033;-85
2022/02/21 11:42:35;;;;;;;22.55;4.32;;;;;;;;;;4978229;28;20030;-85
2022/02/21 11:45:04;;;;;;;15.93;3.05;;;;;;;;;;4978870;28;20029;-85
2022/02/21 11:47:37;;;;;;;21.77;3.15;;;;;;;;;;4964131;28;20089;-88
2022/02/21 11:50:08;;;;;;;22.08;3.50;;;;;;;;;;4972727;28;20053;-85
2022/02/21 11:52:36;;;;;;;15.55;2.80;;;;;;;;;;4959052;28;20403;-86
2022/02/21 11:55:53;;;;;;;;;;;;;;;;;;;;;
2022/02/21 11:58:20;;;;;;;19.30;3.35;;;;;;;;;;4983482;28;20030;-87
2022/02/21 12:00:50;;;;;;;21.60;3.22;;;;;;;;;;4978036;28;20490;-85
2022/02/21 12:03:18;;;;;;;20.70;3.50;;;;;;;;;;4971825;28;20081;-84
2022/02/21 12:05:49;;;;;;;13.57;3.10;;;;;;;;;;4974853;28;20034;-84
2022/02/21 12:08:27;;;;;;;24.67;3.75;;;;;;;;;;4979385;28;20471;-87
2022/02/21 12:13:30;;;;;;;20.40;4.00;;;;;;;;;;4988225;28;20042;-87
2022/02/21 12:16:01;;;;;;;18.88;3.03;;;;;;;;;;4974325;28;20505;-84
2022/02/21 12:18:30;;;;;;;27.73;3.55;;;;;;;;;;4986315;28;20137;-84
2022/02/21 12:21:19;;;;;;;26.50;3.40;;;;;;;;;;4990705;28;20042;-84
2022/02/21 12:23:58;;;;;;;24.77;3.58;;;;;;;;;;4988209;28;20030;-85
2022/02/21 12:26:25;;;;;;;22.38;2.80;;;;;;;;;;4991070;28;20479;-88
2022/02/21 12:29:18;;;;;;;27.65;3.08;;;;;;;;;;4990916;28;20101;-85
2022/02/21 12:31:55;;;;;;;19.23;2.90;;;;;;;;;;4994295;28;20034;-86
2022/02/21 12:34:23;;;;;;;21.25;2.47;;;;;;;;;;4993737;28;20403;-89
2022/02/21 12:36:51;;;;;;;21.35;2.83;;;;;;;;;;4990001;28;20112;-90
2022/02/21 12:39:21;;;;;;;13.93;2.78;;;;;;;;;;4994160;28;20109;-87
2022/02/21 12:41:49;;;;;;;17.52;2.70;;;;;;;;;;4992100;28;20022;-86
2022/02/21 12:44:15;;;;;;;16.75;2.80;;;;;;;;;;4994388;28;20482;-85
2022/02/21 12:46:44;;;;;;;20.38;2.75;;;;;;;;;;4992284;28;20046;-85
2022/02/21 12:49:24;;;;;;;12.25;2.25;;;;;;;;;;4992353;28;20026;-88
2022/02/21 12:51:54;;;;;;;11.25;1.88;;;;;;;;;;4992828;28;20033;-90
2022/02/21 12:54:21;;;;;;;9.07;1.63;;;;;;;;;;4987870;28;20105;-86
2022/02/21 12:56:53;;;;;;;7.95;1.98;;;;;;;;;;4991530;28;20040;-86
2022/02/21 12:59:22;;;;;;;9.32;1.30;;;;;;;;;;4989223;28;20033;-86
2022/02/21 13:01:49;;;;;;;10.07;2.05;;;;;;;;;;4988959;28;20072;-89
2022/02/21 13:04:15;;;;;;;15.35;2.17;;;;;;;;;;4991881;28;20117;-91
2022/02/21 13:06:41;;;;;;;15.07;2.08;;;;;;;;;;4992951;28;20022;-88
2022/02/21 13:09:08;;;;;;;18.85;2.45;;;;;;;;;;4989205;28;20373;-86
2022/02/21 13:11:39;;;;;;;15.13;1.90;;;;;;;;;;4990885;28;20030;-86
2022/02/21 13:14:07;;;;;;;16.42;2.15;;;;;;;;;;4989708;28;20391;-85
2022/02/21 13:16:34;;;;;;;11.88;1.60;;;;;;;;;;4988307;28;20093;-93
2022/02/21 13:19:01;;;;;;;16.40;2.13;;;;;;;;;;4985880;28;20081;-90
2022/02/21 13:21:39;;;;;;;14.95;1.83;;;;;;;;;;4973524;28;20062;-85
2022/02/21 13:24:08;;;;;;;11.68;2.10;;;;;;;;;;4972696;28;20022;-84
2022/02/21 13:26:53;;;;;;;11.68;1.58;;;;;;;;;;4969018;28;20038;-86
2022/02/21 13:29:41;;;;;;;15.85;1.88;;;;;;;;;;4992322;28;20387;-90
2022/02/21 13:32:32;;;;;;;11.95;1.60;;;;;;;;;;4974223;28;20044;-91
2022/02/21 13:35:04;;;;;;;15.07;1.70;;;;;;;;;;4968275;28;20051;-90
2022/02/21 13:37:32;;;;;;;13.52;1.77;;;;;;;;;;4992771;28;20038;-90
2022/02/21 13:40:01;;;;;;;16.02;2.40;;;;;;;;;;4975100;28;20042;-91
2022/02/21 13:42:35;;;;;;;13.88;1.88;;;;;;;;;;4974806;28;20022;-85
2022/02/21 13:45:19;;;;;;;12.85;1.83;;;;;;;;;;4969496;28;20126;-85
2022/02/21 13:48:27;;;;;;;12.05;1.92;;;;;;;;;;4971878;28;20032;-85
2022/02/21 13:51:01;;;;;;;12.40;1.75;;;;;;;;;;4975678;28;20168;-84
2022/02/21 13:53:27;;;;;;;18.67;2.13;;;;;;;;;;4973705;28;20018;-85
2022/02/21 13:56:09;;;;;;;11.68;1.25;;;;;;;;;;4976944;28;20037;-85
2022/02/21 13:58:43;;;;;;;10.15;1.70;;;;;;;;;;4970921;28;20076;-89
2022/02/21 14:01:21;;;;;;;11.65;1.30;;;;;;;;;;4986459;28;20173;-86
2022/02/21 14:03:52;;;;;;;12.35;1.77;;;;;;;;;;4981523;28;20125;-85
2022/02/21 14:06:20;;;;;;;9.48;1.73;;;;;;;;;;4971772;28;20030;-93
2022/02/21 14:08:56;;;;;;;10.65;1.63;;;;;;;;;;4971259;28;20467;-85
2022/02/21 14:11:43;;;;;;;15.88;1.70;;;;;;;;;;4970167;28;20027;-85
2022/02/21 14:14:21;;;;;;;12.32;2.25;;;;;;;;;;4973138;28;20438;-92
2022/02/21 14:16:48;;;;;;;12.68;1.92;;;;;;;;;;4971843;28;20030;-86
2022/02/21 14:19:17;;;;;;;13.02;2.08;;;;;;;;;;4954666;28;1067662;-89
2022/02/21 14:21:57;;;;;;;11.38;2.15;;;;;;;;;;5009118;28;20037;-89
2022/02/21 14:24:24;;;;;;;15.55;1.85;;;;;;;;;;5017805;28;20045;-89
2022/02/21 14:26:51;;;;;;;13.73;2.05;;;;;;;;;;5001715;28;20033;-85
2022/02/21 14:29:17;;;;;;;11.80;1.50;;;;;;;;;;5002296;28;20033;-84
2022/02/21 14:32:02;;;;;;;12.15;1.80;;;;;;;;;;5003904;28;20564;-90
2022/02/21 14:34:30;;;;;;;13.95;2.08;;;;;;;;;;5005589;28;20040;-89
2022/02/21 14:36:55;;;;;;;13.63;1.95;;;;;;;;;;5000318;28;20033;-85
2022/02/21 14:39:30;;;;;;;13.48;1.88;;;;;;;;;;5004819;28;20091;-91
2022/02/21 14:42:02;;;;;;;7.93;1.35;;;;;;;;;;5000289;28;20018;-85
2022/02/21 14:44:30;;;;;;;14.48;2.17;;;;;;;;;;5003305;28;20478;-89
2022/02/21 14:47:02;;;;;;;12.95;1.83;;;;;;;;;;5005831;28;20037;-87